Hotevilla, Arizona
Current Conditions -  °F | °C
As of 11:56 PM on Thursday 23 Oct 2014 (Local Time) from KINW Reporting Station
Clear Clear  
Wind Chill: 49°   Ceiling: Unl
Heat Index: 49°   Visibility: 10mi
Dew Point: 40°   Wind: 3mph
Humidity: 71%   Direction: 110°ESE
Pressure: 30.25"   Gusts: NA
Location:  35.93°N, 110.67°W
Report Text: KINW 240656Z AUTO 11003KT 10SM CLR 09/04 A3025 RMK AO2 SLP195 T00940044 402610039
Loading
Personal Weather Stations






























Interactive Weather Map
Tropical Storm Tracking
New forecast layout! Learn more

10-Day Weather Forecast

Advertisements
Track Severe Weather on mobile